createdAt,value
2023-03-18T00:00:16.731Z,100591.47
2023-03-18T00:02:44.770Z,100605.31
2023-03-18T00:05:14.432Z,100596.72
2023-03-18T00:07:42.699Z,100603.59
2023-03-18T00:10:12.350Z,100599.22
2023-03-18T00:12:40.795Z,100601.84
2023-03-18T00:15:12.356Z,100590.63
2023-03-18T00:17:41.159Z,100597.56
2023-03-18T00:20:12.713Z,100593.25
2023-03-18T00:22:41.819Z,100595.81
2023-03-18T00:25:11.637Z,100586.38
2023-03-18T00:27:40.137Z,100572.53
2023-03-18T00:30:12.351Z,100570.81
2023-03-18T00:32:39.872Z,100571.63
2023-03-18T00:35:07.939Z,100580.31
2023-03-18T00:37:36.571Z,100588.09
2023-03-18T00:40:06.951Z,100585.50
2023-03-18T00:42:38.945Z,100585.50
2023-03-18T00:45:08.690Z,100586.34
2023-03-18T00:47:38.441Z,100581.22
2023-03-18T00:50:07.309Z,100580.31
2023-03-18T00:52:35.063Z,100584.59
2023-03-18T00:55:02.560Z,100576.81
2023-03-18T00:57:30.807Z,100582.06
2023-03-18T00:59:59.232Z,100583.69
2023-03-18T01:02:27.522Z,100585.44
2023-03-18T01:04:57.059Z,100586.34
2023-03-18T01:07:25.063Z,100587.00
2023-03-18T01:09:52.732Z,100586.91
2023-03-18T01:12:20.186Z,100583.69
2023-03-18T01:14:48.147Z,100581.84
2023-03-18T01:17:15.631Z,100577.53
2023-03-18T01:19:43.469Z,100574.19
2023-03-18T01:22:12.209Z,100574.22
2023-03-18T01:24:40.196Z,100573.25
2023-03-18T01:27:07.770Z,100569.06
2023-03-18T01:29:35.650Z,100582.03
2023-03-18T01:32:03.574Z,100573.38
2023-03-18T01:34:31.184Z,100564.78
2023-03-18T01:36:58.588Z,100564.72
2023-03-18T01:39:27.377Z,100573.34
2023-03-18T01:41:54.930Z,100570.78
2023-03-18T01:44:24.757Z,100575.03
2023-03-18T01:46:53.542Z,100562.97
2023-03-18T01:49:24.139Z,100570.81
2023-03-18T01:51:55.255Z,100571.66
2023-03-18T01:54:24.920Z,100558.75
2023-03-18T01:56:55.533Z,100564.78
2023-03-18T01:59:26.377Z,100575.06
2023-03-18T02:01:58.186Z,100566.50
2023-03-18T02:04:31.843Z,100566.47
2023-03-18T02:07:01.262Z,100575.09
2023-03-18T02:09:29.603Z,100582.88
2023-03-18T02:11:59.073Z,100580.97
2023-03-18T02:14:27.681Z,100580.22
2023-03-18T02:17:00.202Z,100573.28
2023-03-18T02:19:41.586Z,100577.22
2023-03-18T02:22:19.022Z,100574.22
2023-03-18T02:24:56.376Z,100569.91
2023-03-18T02:27:27.613Z,100572.84
2023-03-18T02:29:57.369Z,100571.41
2023-03-18T02:32:27.776Z,100562.97
2023-03-18T02:34:56.731Z,100573.25
2023-03-18T02:37:24.252Z,100575.59
2023-03-18T02:39:51.926Z,100566.31
2023-03-18T02:42:29.917Z,100572.47
2023-03-18T02:44:57.950Z,100567.25
2023-03-18T02:47:27.269Z,100576.75
2023-03-18T02:49:55.317Z,100566.00
2023-03-18T02:52:22.749Z,100568.09
2023-03-18T02:54:50.162Z,100568.91
2023-03-18T02:57:17.553Z,100557.78
2023-03-18T02:59:46.361Z,100562.13
2023-03-18T03:02:13.840Z,100557.66
2023-03-18T03:04:41.314Z,100558.69
2023-03-18T03:07:08.925Z,100563.03
2023-03-18T03:09:36.369Z,100559.47
2023-03-18T03:12:03.946Z,100559.56
2023-03-18T03:14:31.353Z,100568.19
2023-03-18T03:17:00.114Z,100575.00
2023-03-18T03:19:27.803Z,100576.56
2023-03-18T03:21:55.243Z,100576.72
2023-03-18T03:24:22.661Z,100573.09
2023-03-18T03:26:50.073Z,100583.34
2023-03-18T03:29:17.481Z,100575.66
2023-03-18T03:31:45.210Z,100580.88
2023-03-18T03:34:14.185Z,100574.97
2023-03-18T03:36:41.690Z,100570.56
2023-03-18T03:39:09.110Z,100581.25
2023-03-18T03:41:36.608Z,100586.97
2023-03-18T03:44:04.067Z,100578.91
2023-03-18T03:46:32.185Z,100592.63
2023-03-18T03:48:59.693Z,100582.50
2023-03-18T03:51:29.309Z,100576.31
2023-03-18T03:53:57.480Z,100579.03
2023-03-18T03:56:24.879Z,100584.16
2023-03-18T03:58:52.293Z,100580.88
2023-03-18T04:01:19.891Z,100571.38
2023-03-18T04:03:47.296Z,100576.28
2023-03-18T04:06:15.325Z,100573.03
2023-03-18T04:08:44.015Z,100578.25
2023-03-18T04:11:12.542Z,100582.59
2023-03-18T04:13:40.018Z,100594.09
2023-03-18T04:16:08.084Z,100591.97
2023-03-18T04:18:35.609Z,100598.97
2023-03-18T04:21:03.127Z,100594.63
2023-03-18T04:23:31.077Z,100588.63
2023-03-18T04:26:00.023Z,100591.09
2023-03-18T04:28:27.442Z,100589.50
2023-03-18T04:30:54.900Z,100601.59
2023-03-18T04:33:22.321Z,100599.81
2023-03-18T04:35:50.209Z,100605.50
2023-03-18T04:38:17.927Z,100614.25
2023-03-18T04:40:45.612Z,100613.16
2023-03-18T04:43:14.405Z,100608.22
2023-03-18T04:45:41.877Z,100612.91
2023-03-18T04:48:10.298Z,100622.19
2023-03-18T04:50:37.776Z,100617.63
2023-03-18T04:53:05.244Z,100616.78
2023-03-18T04:55:33.964Z,100624.34
2023-03-18T04:58:01.806Z,100617.63
2023-03-18T05:00:30.557Z,100621.09
2023-03-18T05:02:57.946Z,100622.84
2023-03-18T05:05:25.514Z,100621.78
2023-03-18T05:07:52.925Z,100614.16
2023-03-18T05:10:20.695Z,100621.69
2023-03-18T05:12:48.604Z,100615.84
2023-03-18T05:15:16.100Z,100621.03
2023-03-18T05:17:44.892Z,100619.28
2023-03-18T05:20:13.632Z,100617.66
2023-03-18T05:22:41.404Z,100621.59
2023-03-18T05:25:11.459Z,100618.44
2023-03-18T05:27:39.058Z,100619.28
2023-03-18T05:30:07.697Z,100614.97
2023-03-18T05:32:35.458Z,100609.97
2023-03-18T05:35:05.553Z,100611.72
2023-03-18T05:37:32.965Z,100612.53
2023-03-18T05:40:01.351Z,100615.03
2023-03-18T05:42:29.050Z,100610.00
2023-03-18T05:44:57.925Z,100619.47
2023-03-18T05:47:25.380Z,100619.50
2023-03-18T05:49:52.824Z,100619.50
2023-03-18T05:52:21.529Z,100613.59
2023-03-18T05:54:50.181Z,100626.47
2023-03-18T05:57:17.933Z,100631.56
2023-03-18T05:59:45.422Z,100629.50
2023-03-18T06:02:12.975Z,100627.25
2023-03-18T06:04:41.100Z,100629.81
2023-03-18T06:07:08.634Z,100627.06
2023-03-18T06:09:37.714Z,100628.56
2023-03-18T06:12:05.460Z,100623.53
2023-03-18T06:14:32.874Z,100623.69
2023-03-18T06:17:00.297Z,100632.16
2023-03-18T06:19:28.606Z,100628.13
2023-03-18T06:21:56.029Z,100622.06
2023-03-18T06:24:23.610Z,100626.38
2023-03-18T06:30:39.935Z,100648.09
2023-03-18T06:33:07.546Z,100645.53
2023-03-18T06:35:35.495Z,100655.56
2023-03-18T06:38:03.652Z,100655.50
2023-03-18T06:40:31.106Z,100650.09
2023-03-18T06:42:58.595Z,100645.72
2023-03-18T06:45:26.028Z,100649.03
2023-03-18T06:47:55.218Z,100645.28
2023-03-18T06:50:24.265Z,100655.56
2023-03-18T06:52:51.705Z,100648.69
2023-03-18T06:55:19.550Z,100645.25
2023-03-18T06:57:47.724Z,100650.53
2023-03-18T07:00:16.939Z,100664.25
2023-03-18T07:02:44.483Z,100670.00
2023-03-18T07:05:14.645Z,100667.16
2023-03-18T07:07:42.392Z,100676.66
2023-03-18T07:10:13.921Z,100684.44
2023-03-18T07:12:41.442Z,100692.22
2023-03-18T07:15:11.406Z,100688.75
2023-03-18T07:17:38.879Z,100685.38
2023-03-18T07:20:07.311Z,100690.59
2023-03-18T07:22:37.303Z,100689.72
2023-03-18T07:25:05.154Z,100680.25
2023-03-18T07:27:32.599Z,100682.00
2023-03-18T07:30:00.051Z,100676.81
2023-03-18T07:32:27.529Z,100680.28
2023-03-18T07:34:54.942Z,100692.34
2023-03-18T07:37:22.316Z,100694.88
2023-03-18T07:39:51.049Z,100697.53
2023-03-18T07:42:18.421Z,100695.81
2023-03-18T07:44:45.813Z,100694.00
2023-03-18T07:47:14.608Z,100690.69
2023-03-18T07:49:42.628Z,100702.72
2023-03-18T07:52:10.536Z,100709.59
2023-03-18T07:54:38.022Z,100709.56
2023-03-18T07:57:06.972Z,100709.56
2023-03-18T07:59:34.591Z,100719.03
2023-03-18T08:02:02.514Z,100714.69
2023-03-18T08:04:30.278Z,100712.09
2023-03-18T08:06:58.243Z,100720.66
2023-03-18T08:09:28.782Z,100714.59
2023-03-18T08:11:56.351Z,100707.56
2023-03-18T08:14:25.546Z,100704.06
2023-03-18T08:16:53.103Z,100700.63
2023-03-18T08:19:21.439Z,100698.72
2023-03-18T08:21:49.097Z,100705.81
2023-03-18T08:24:17.271Z,100709.06
2023-03-18T08:26:45.241Z,100719.28
2023-03-18T08:29:12.703Z,100724.47
2023-03-18T08:31:41.471Z,100724.47
2023-03-18T08:34:08.896Z,100718.03
2023-03-18T08:36:36.864Z,100723.81
2023-03-18T08:39:05.249Z,100722.81
2023-03-18T08:41:36.521Z,100719.09
2023-03-18T08:44:06.561Z,100713.03
2023-03-18T08:46:33.977Z,100708.56
2023-03-18T08:49:03.004Z,100716.53
2023-03-18T08:51:30.631Z,100715.56
2023-03-18T08:53:58.105Z,100707.69
2023-03-18T08:56:26.073Z,100709.97
2023-03-18T08:58:54.582Z,100713.19
2023-03-18T09:01:22.462Z,100715.91
2023-03-18T09:03:54.736Z,100720.94
2023-03-18T09:06:23.567Z,100726.91
2023-03-18T09:08:50.999Z,100726.94
2023-03-18T09:11:18.595Z,100736.72
2023-03-18T09:14:00.149Z,100727.31
2023-03-18T09:16:28.687Z,100724.38
2023-03-18T09:18:56.189Z,100723.22
2023-03-18T09:21:25.154Z,100723.72
2023-03-18T09:23:52.667Z,100731.03
2023-03-18T09:26:20.185Z,100729.41
2023-03-18T09:28:47.669Z,100724.34
2023-03-18T09:31:15.541Z,100733.47
2023-03-18T09:33:43.550Z,100733.44
2023-03-18T09:36:11.543Z,100738.69
2023-03-18T09:38:47.866Z,100736.81
2023-03-18T09:41:29.813Z,100740.91
2023-03-18T09:44:08.470Z,100742.56
2023-03-18T09:46:47.733Z,100745.75
2023-03-18T09:49:29.590Z,100741.72
2023-03-18T09:52:12.240Z,100741.63
2023-03-18T09:54:48.373Z,100745.88
2023-03-18T09:57:22.887Z,100748.53
2023-03-18T09:59:55.637Z,100751.75
2023-03-18T10:02:28.386Z,100745.69
2023-03-18T10:04:58.956Z,100745.06
2023-03-18T10:07:32.636Z,100751.13
2023-03-18T10:10:07.924Z,100741.50
2023-03-18T10:12:37.791Z,100747.41
2023-03-18T10:15:16.270Z,100744.78
2023-03-18T10:17:47.565Z,100738.06
2023-03-18T10:20:21.038Z,100735.78
2023-03-18T10:22:57.987Z,100741.91
2023-03-18T10:25:32.143Z,100729.09
2023-03-18T10:28:27.398Z,100739.81
2023-03-18T10:31:02.339Z,100723.25
2023-03-18T10:33:41.918Z,100729.25
2023-03-18T10:36:13.904Z,100732.22
2023-03-18T10:38:44.738Z,100741.28
2023-03-18T10:41:22.656Z,100733.13
2023-03-18T10:43:54.082Z,100725.78
2023-03-18T10:46:22.983Z,100716.84
2023-03-18T10:48:55.679Z,100723.50
2023-03-18T10:51:28.851Z,100728.38
2023-03-18T10:54:02.468Z,100734.66
2023-03-18T10:56:31.729Z,100720.13
2023-03-18T10:58:59.515Z,100732.16
2023-03-18T11:01:29.871Z,100728.97
2023-03-18T11:04:01.996Z,100720.25
2023-03-18T11:06:36.770Z,100727.59
2023-03-18T11:09:08.483Z,100727.06
2023-03-18T11:11:40.805Z,100732.22
2023-03-18T11:14:14.106Z,100732.66
2023-03-18T11:16:46.145Z,100731.59
2023-03-18T11:19:29.184Z,100724.59
2023-03-18T11:22:20.817Z,100723.44
2023-03-18T11:25:02.272Z,100729.59
2023-03-18T11:27:37.315Z,100720.88
2023-03-18T11:30:16.681Z,100724.03
2023-03-18T11:32:54.407Z,100724.47
2023-03-18T11:35:23.962Z,100724.66
2023-03-18T11:37:52.241Z,100724.84
2023-03-18T11:40:28.035Z,100727.81
2023-03-18T11:42:58.923Z,100736.56
2023-03-18T11:45:34.921Z,100723.81
2023-03-18T11:48:03.834Z,100735.03
2023-03-18T11:50:41.638Z,100728.50
2023-03-18T11:53:14.284Z,100720.06
2023-03-18T11:55:46.597Z,100711.75
2023-03-18T11:58:48.003Z,100712.38
2023-03-18T12:01:24.010Z,100715.28
2023-03-18T12:04:23.483Z,100724.16
2023-03-18T12:07:03.437Z,100715.16
2023-03-18T12:09:39.533Z,100713.66
2023-03-18T12:12:22.148Z,100717.16
2023-03-18T12:15:01.015Z,100719.19
2023-03-18T12:17:37.721Z,100721.31
2023-03-18T12:20:19.749Z,100732.34
2023-03-18T12:23:03.332Z,100724.66
2023-03-18T12:25:58.029Z,100722.06
2023-03-18T12:28:34.900Z,100718.44
2023-03-18T12:31:42.943Z,100721.78
2023-03-18T12:34:22.913Z,100722.94
2023-03-18T12:37:05.370Z,100731.81
2023-03-18T12:40:03.522Z,100719.09
2023-03-18T12:42:48.544Z,100719.72
2023-03-18T12:45:20.544Z,100718.94
2023-03-18T12:47:53.563Z,100722.09
2023-03-18T12:50:25.983Z,100721.44
2023-03-18T12:52:57.888Z,100722.31
2023-03-18T12:55:29.844Z,100731.97
2023-03-18T12:58:02.165Z,100722.97
2023-03-18T13:00:33.129Z,100719.59
2023-03-18T13:03:09.624Z,100722.19
2023-03-18T13:05:45.403Z,100716.72
2023-03-18T13:08:45.186Z,100716.78
2023-03-18T13:11:29.398Z,100708.38
2023-03-18T13:14:01.724Z,100714.78
2023-03-18T13:16:31.248Z,100708.81
2023-03-18T13:19:02.498Z,100709.81
2023-03-18T13:21:36.443Z,100715.03
2023-03-18T13:24:16.019Z,100716.34
2023-03-18T13:26:58.112Z,100717.66
2023-03-18T13:29:35.270Z,100710.66
2023-03-18T13:32:22.851Z,100712.09
2023-03-18T13:35:21.329Z,100710.84
2023-03-18T13:38:10.187Z,100716.13
2023-03-18T13:40:48.939Z,100713.50
2023-03-18T13:43:19.344Z,100717.94
2023-03-18T13:45:48.794Z,100717.09
2023-03-18T13:48:19.661Z,100714.84
2023-03-18T13:50:51.679Z,100709.09
2023-03-18T13:53:25.226Z,100715.38
2023-03-18T13:56:01.246Z,100716.97
2023-03-18T13:58:30.553Z,100708.75
2023-03-18T14:01:16.656Z,100707.94
2023-03-18T14:03:56.216Z,100718.03
2023-03-18T14:06:39.551Z,100707.22
2023-03-18T14:09:33.187Z,100715.63
2023-03-18T14:12:18.769Z,100707.53
2023-03-18T14:14:58.629Z,100702.94
2023-03-18T14:17:48.392Z,100707.72
2023-03-18T14:20:25.881Z,100701.81
2023-03-18T14:22:56.467Z,100689.06
2023-03-18T14:25:43.487Z,100704.81
2023-03-18T14:28:22.081Z,100688.41
2023-03-18T14:31:00.559Z,100694.09
2023-03-18T14:33:36.176Z,100685.13
2023-03-18T14:36:09.793Z,100687.00
2023-03-18T14:38:47.216Z,100687.50
2023-03-18T14:41:20.878Z,100687.59
2023-03-18T14:43:58.048Z,100683.13
2023-03-18T14:46:32.945Z,100688.00
2023-03-18T14:49:01.347Z,100684.88
2023-03-18T14:51:32.293Z,100681.06
2023-03-18T14:54:06.037Z,100685.50
2023-03-18T14:56:40.457Z,100681.38
2023-03-18T14:59:08.725Z,100675.47
2023-03-18T15:01:38.705Z,100683.06
2023-03-18T15:04:09.339Z,100674.59
2023-03-18T15:06:41.271Z,100673.03
2023-03-18T15:09:16.467Z,100682.88
2023-03-18T15:11:45.826Z,100674.22
2023-03-18T15:14:14.144Z,100674.88
2023-03-18T15:16:41.582Z,100666.78
2023-03-18T15:19:12.444Z,100677.16
2023-03-18T15:21:40.433Z,100673.28
2023-03-18T15:24:10.588Z,100677.19
2023-03-18T15:26:39.872Z,100677.16
2023-03-18T15:29:26.647Z,100673.03
2023-03-18T15:31:54.620Z,100678.63
2023-03-18T15:34:24.160Z,100679.69
2023-03-18T15:36:56.779Z,100684.00
2023-03-18T15:39:33.965Z,100687.09
2023-03-18T15:42:02.599Z,100689.00
2023-03-18T15:44:32.165Z,100692.06
2023-03-18T15:47:07.477Z,100698.22
2023-03-18T15:49:49.935Z,100696.84
2023-03-18T15:52:18.149Z,100699.31
2023-03-18T15:54:49.050Z,100689.94
2023-03-18T15:57:26.975Z,100703.34
2023-03-18T15:59:54.878Z,100712.94
2023-03-18T16:02:22.681Z,100715.03
2023-03-18T16:04:50.370Z,100712.09
2023-03-18T16:07:22.102Z,100711.94
2023-03-18T16:09:51.289Z,100714.78
2023-03-18T16:12:20.385Z,100716.06
2023-03-18T16:14:51.422Z,100715.41
2023-03-18T16:17:22.190Z,100720.44
2023-03-18T16:19:54.109Z,100719.31
2023-03-18T16:22:22.029Z,100725.56
2023-03-18T16:24:51.073Z,100723.00
2023-03-18T16:27:29.828Z,100718.44
2023-03-18T16:29:57.290Z,100724.16
2023-03-18T16:32:24.757Z,100724.47
2023-03-18T16:34:52.161Z,100725.31
2023-03-18T16:37:23.685Z,100726.31
2023-03-18T16:39:54.552Z,100732.72
2023-03-18T16:42:23.616Z,100736.19
2023-03-18T16:44:51.946Z,100730.38
2023-03-18T16:47:22.633Z,100743.88
2023-03-18T16:49:51.285Z,100744.22
2023-03-18T16:52:19.248Z,100751.00
2023-03-18T16:54:46.682Z,100750.66
2023-03-18T16:57:20.140Z,100755.28
2023-03-18T16:59:50.616Z,100747.59
2023-03-18T17:02:31.532Z,100751.50
2023-03-18T17:04:59.478Z,100758.53
2023-03-18T17:07:27.396Z,100751.22
2023-03-18T17:09:54.824Z,100756.63
2023-03-18T17:12:26.189Z,100766.88
2023-03-18T17:14:56.221Z,100768.91
2023-03-18T17:17:29.389Z,100773.28
2023-03-18T17:19:57.852Z,100772.34
2023-03-18T17:22:27.791Z,100771.75
2023-03-18T17:24:55.242Z,100767.22
2023-03-18T17:27:27.027Z,100777.06
2023-03-18T17:29:54.662Z,100770.94
2023-03-18T17:32:22.556Z,100785.09
2023-03-18T17:34:51.676Z,100789.72
2023-03-18T17:37:19.267Z,100794.38
2023-03-18T17:39:46.741Z,100789.09
2023-03-18T17:42:28.488Z,100790.69
2023-03-18T17:44:58.300Z,100797.66
2023-03-18T17:47:26.290Z,100794.19
2023-03-18T17:49:54.745Z,100791.41
2023-03-18T17:52:23.890Z,100795.84
2023-03-18T17:54:51.789Z,100801.03
2023-03-18T17:57:19.307Z,100799.22
2023-03-18T17:59:48.586Z,100807.06
2023-03-18T18:02:18.338Z,100804.75
2023-03-18T18:04:45.927Z,100800.91
2023-03-18T18:07:17.951Z,100797.66
2023-03-18T18:09:46.030Z,100803.25
2023-03-18T18:12:18.149Z,100801.19
2023-03-18T18:14:45.896Z,100797.00
2023-03-18T18:17:16.031Z,100799.78
2023-03-18T18:19:43.868Z,100797.31
2023-03-18T18:22:17.924Z,100792.94
2023-03-18T18:24:46.960Z,100797.25
2023-03-18T18:27:15.442Z,100805.00
2023-03-18T18:29:43.472Z,100808.63
2023-03-18T18:32:11.028Z,100799.91
2023-03-18T18:34:39.804Z,100808.78
2023-03-18T18:37:07.782Z,100820.25
2023-03-18T18:39:35.209Z,100815.84
2023-03-18T18:42:04.018Z,100798.50
2023-03-18T18:44:31.725Z,100810.75
2023-03-18T18:46:59.968Z,100808.28
2023-03-18T18:49:28.788Z,100808.31
2023-03-18T18:51:57.559Z,100803.06
2023-03-18T18:54:25.869Z,100803.84
2023-03-18T18:56:53.834Z,100805.38
2023-03-18T18:59:24.332Z,100800.25
2023-03-18T19:01:52.201Z,100810.59
2023-03-18T19:04:21.839Z,100818.41
2023-03-18T19:06:50.843Z,100817.72
2023-03-18T19:09:21.916Z,100818.50
2023-03-18T19:11:50.072Z,100816.66
2023-03-18T19:14:21.796Z,100809.25
2023-03-18T19:16:49.848Z,100809.94
2023-03-18T19:19:19.814Z,100810.81
2023-03-18T19:21:47.372Z,100811.81
2023-03-18T19:24:27.240Z,100810.97
2023-03-18T19:26:56.240Z,100810.97
2023-03-18T19:29:23.805Z,100812.78
2023-03-18T19:31:51.626Z,100810.25
2023-03-18T19:34:20.418Z,100809.06
2023-03-18T19:36:50.053Z,100812.69
2023-03-18T19:39:19.619Z,100814.44
2023-03-18T19:41:49.137Z,100815.31
2023-03-18T19:44:18.819Z,100816.25
2023-03-18T19:46:47.521Z,100824.91
2023-03-18T19:49:20.276Z,100823.41
2023-03-18T19:51:49.683Z,100824.94
2023-03-18T19:54:27.073Z,100826.84
2023-03-18T19:56:57.152Z,100842.16
2023-03-18T19:59:33.569Z,100848.53
2023-03-18T20:02:03.708Z,100847.28
2023-03-18T20:04:31.460Z,100848.22
2023-03-18T20:06:58.926Z,100849.81
2023-03-18T20:09:26.352Z,100857.41
2023-03-18T20:12:04.654Z,100859.84
2023-03-18T20:14:37.977Z,100869.00
2023-03-18T20:17:27.815Z,100861.75
2023-03-18T20:19:55.327Z,100863.25
2023-03-18T20:22:24.815Z,100859.06
2023-03-18T20:24:52.328Z,100862.59
2023-03-18T20:27:21.832Z,100865.22
2023-03-18T20:29:49.558Z,100865.13
2023-03-18T20:32:16.979Z,100867.69
2023-03-18T20:34:46.189Z,100869.78
2023-03-18T20:37:25.003Z,100877.81
2023-03-18T20:39:53.099Z,100868.81
2023-03-18T20:42:21.971Z,100873.00
2023-03-18T20:44:49.366Z,100875.84
2023-03-18T20:47:16.751Z,100873.97
2023-03-18T20:49:45.654Z,100869.81
2023-03-18T20:52:25.859Z,100875.72
2023-03-18T20:54:53.509Z,100877.75
2023-03-18T20:57:22.444Z,100870.34
2023-03-18T20:59:50.356Z,100871.66
2023-03-18T21:02:29.965Z,100867.31
2023-03-18T21:04:58.164Z,100868.28
2023-03-18T21:07:26.622Z,100870.88
2023-03-18T21:09:54.497Z,100877.09
2023-03-18T21:12:23.409Z,100876.13
2023-03-18T21:14:51.176Z,100872.88
2023-03-18T21:17:20.402Z,100884.09
2023-03-18T21:19:48.255Z,100893.69
2023-03-18T21:22:21.817Z,100886.69
2023-03-18T21:24:49.721Z,100876.31
2023-03-18T21:27:22.692Z,100876.63
2023-03-18T21:29:52.807Z,100879.94
2023-03-18T21:32:23.041Z,100885.13
2023-03-18T21:34:51.343Z,100878.25
2023-03-18T21:37:20.708Z,100885.16
2023-03-18T21:39:48.151Z,100880.84
2023-03-18T21:42:22.280Z,100883.44
2023-03-18T21:44:51.484Z,100879.25
2023-03-18T21:47:20.914Z,100882.75
2023-03-18T21:49:48.958Z,100881.88
2023-03-18T21:52:23.322Z,100887.16
2023-03-18T21:54:50.740Z,100878.41
2023-03-18T21:57:24.878Z,100882.78
2023-03-18T21:59:58.928Z,100876.59
2023-03-18T22:02:32.702Z,100887.28
2023-03-18T22:05:15.817Z,100887.31
2023-03-18T22:07:49.945Z,100887.16
2023-03-18T22:10:22.640Z,100890.75
2023-03-18T22:12:55.559Z,100886.41
2023-03-18T22:15:42.262Z,100882.00
2023-03-18T22:18:12.440Z,100882.00
2023-03-18T22:20:50.003Z,100885.44
2023-03-18T22:23:23.071Z,100890.69
2023-03-18T22:25:58.779Z,100880.28
2023-03-18T22:28:38.744Z,100883.78
2023-03-18T22:31:22.728Z,100882.03
2023-03-18T22:33:54.619Z,100896.75
2023-03-18T22:36:26.362Z,100889.81
2023-03-18T22:39:01.362Z,100897.53
2023-03-18T22:41:30.611Z,100889.84
2023-03-18T22:44:08.002Z,100887.19
2023-03-18T22:46:49.917Z,100899.38
2023-03-18T22:49:20.536Z,100897.59
2023-03-18T22:51:51.415Z,100888.91
2023-03-18T22:54:34.840Z,100901.06
2023-03-18T22:57:05.882Z,100895.03
2023-03-18T22:59:34.121Z,100890.66
2023-03-18T23:02:04.067Z,100888.91
2023-03-18T23:04:32.283Z,100895.84
2023-03-18T23:07:03.219Z,100897.56
2023-03-18T23:09:50.413Z,100901.91
2023-03-18T23:12:27.370Z,100894.13
2023-03-18T23:14:56.368Z,100898.53
2023-03-18T23:17:29.404Z,100897.66
2023-03-18T23:20:02.889Z,100896.78
2023-03-18T23:22:47.668Z,100892.47
2023-03-18T23:25:19.447Z,100902.84
2023-03-18T23:27:59.922Z,100904.59
2023-03-18T23:30:33.068Z,100904.56
2023-03-18T23:33:16.930Z,100903.72
2023-03-18T23:36:10.564Z,100901.13
2023-03-18T23:38:54.000Z,100901.13
2023-03-18T23:41:25.090Z,100893.34
2023-03-18T23:44:03.863Z,100901.09
2023-03-18T23:46:45.292Z,100896.78
2023-03-18T23:49:18.248Z,100894.22
2023-03-18T23:51:51.796Z,100898.50
2023-03-18T23:54:30.560Z,100889.03
2023-03-18T23:56:58.167Z,100888.19
2023-03-18T23:59:25.830Z,100889.06
